RYR80NQ LIMC-LHBP
Flight info
| Callsign | RYR80NQ |
|---|---|
| Flight time | 1h 9m |
| Altitude | 36000 |
| Route | OSKOR DCT NESTI DCT MOBDO/N0446F350 DCT MALUG DCT EVAXI DCT GOTAR DCT SIRDU DCT OGVUN DCT VAJDI |
| Aircraft | B38M/M-SDE1FGHILORVWXY/HB1 |
Departure
| Time | 2026-05-06 15:46 |
|---|---|
| Airport | Milan Malpensa International Airport (LIMC) |
Arrival
| Time | 2026-05-06 16:56 |
|---|---|
| Airport | Budapest Liszt Ferenc International Airport (LHBP) |
| Time | Latitude | Longitude | Altitude | Speed | Heading |
|---|---|---|---|---|---|
| 2026-05-06 14:43 | 45.62907 | 8.71864 | 743 ft | 0 kts | 79° |
| 2026-05-06 15:33 | 45.62907 | 8.71869 | 743 ft | 0 kts | 79° |
| 2026-05-06 15:34 | 45.62912 | 8.71903 | 742 ft | 9 kts | 79° |
| 2026-05-06 15:34 | 45.62906 | 8.71960 | 742 ft | 1 kts | 152° |
| 2026-05-06 15:34 | 45.62872 | 8.71975 | 743 ft | 11 kts | 162° |
| 2026-05-06 15:34 | 45.62768 | 8.71996 | 742 ft | 18 kts | 171° |
| 2026-05-06 15:35 | 45.62644 | 8.72030 | 743 ft | 19 kts | 170° |
| 2026-05-06 15:35 | 45.62509 | 8.72069 | 743 ft | 21 kts | 169° |
| 2026-05-06 15:35 | 45.62363 | 8.72110 | 743 ft | 22 kts | 169° |
| 2026-05-06 15:35 | 45.62207 | 8.72153 | 742 ft | 24 kts | 169° |
| 2026-05-06 15:36 | 45.62040 | 8.72199 | 743 ft | 25 kts | 168° |
| 2026-05-06 15:36 | 45.61897 | 8.72239 | 744 ft | 1 kts | 168° |
| 2026-05-06 15:37 | 45.61888 | 8.72241 | 743 ft | 4 kts | 169° |
| 2026-05-06 15:37 | 45.61810 | 8.72262 | 743 ft | 19 kts | 169° |
| 2026-05-06 15:37 | 45.61634 | 8.72310 | 743 ft | 31 kts | 169° |
| 2026-05-06 15:37 | 45.61462 | 8.72358 | 743 ft | 16 kts | 169° |
| 2026-05-06 15:38 | 45.61384 | 8.72278 | 742 ft | 17 kts | 263° |
| 2026-05-06 15:38 | 45.61311 | 8.72201 | 741 ft | 16 kts | 171° |
| 2026-05-06 15:38 | 45.61195 | 8.72232 | 744 ft | 18 kts | 170° |
| 2026-05-06 15:38 | 45.61068 | 8.72265 | 744 ft | 19 kts | 169° |
| 2026-05-06 15:39 | 45.60931 | 8.72304 | 744 ft | 21 kts | 168° |
| 2026-05-06 15:39 | 45.60784 | 8.72346 | 742 ft | 22 kts | 169° |
| 2026-05-06 15:39 | 45.60649 | 8.72435 | 744 ft | 23 kts | 118° |
| 2026-05-06 15:39 | 45.60624 | 8.72663 | 743 ft | 24 kts | 96° |
| 2026-05-06 15:40 | 45.60606 | 8.72902 | 743 ft | 25 kts | 96° |
| 2026-05-06 15:40 | 45.60590 | 8.73163 | 744 ft | 26 kts | 82° |
| 2026-05-06 15:40 | 45.60721 | 8.73325 | 743 ft | 26 kts | 22° |
| 2026-05-06 15:40 | 45.60891 | 8.73409 | 744 ft | 24 kts | 1° |
| 2026-05-06 15:41 | 45.61057 | 8.73364 | 742 ft | 24 kts | 349° |
| 2026-05-06 15:41 | 45.61213 | 8.73320 | 744 ft | 20 kts | 349° |
| 2026-05-06 15:41 | 45.61353 | 8.73281 | 743 ft | 22 kts | 349° |
| 2026-05-06 15:41 | 45.61521 | 8.73235 | 743 ft | 26 kts | 349° |
| 2026-05-06 15:42 | 45.61610 | 8.73227 | 744 ft | 4 kts | 47° |
| 2026-05-06 15:42 | 45.61615 | 8.73255 | 741 ft | 7 kts | 80° |
| 2026-05-06 15:42 | 45.61632 | 8.73395 | 744 ft | 16 kts | 82° |
| 2026-05-06 15:42 | 45.61587 | 8.73555 | 742 ft | 18 kts | 103° |
| 2026-05-06 15:43 | 45.61585 | 8.73604 | 743 ft | 0 kts | 84° |
| 2026-05-06 15:45 | 45.61585 | 8.73611 | 743 ft | 2 kts | 84° |
| 2026-05-06 15:45 | 45.61595 | 8.73676 | 740 ft | 12 kts | 66° |
| 2026-05-06 15:45 | 45.61696 | 8.73711 | 740 ft | 21 kts | 352° |
| 2026-05-06 15:45 | 45.62056 | 8.73617 | 741 ft | 86 kts | 349° |
| 2026-05-06 15:46 | 45.62834 | 8.73398 | 742 ft | 140 kts | 349° |
| 2026-05-06 15:46 | 45.63898 | 8.73104 | 934 ft | 164 kts | 349° |
| 2026-05-06 15:46 | 45.65022 | 8.72802 | 1423 ft | 176 kts | 349° |
| 2026-05-06 15:46 | 45.66266 | 8.72615 | 2014 ft | 180 kts | 358° |
| 2026-05-06 15:47 | 45.67548 | 8.72669 | 2590 ft | 192 kts | 5° |
| 2026-05-06 15:47 | 45.68902 | 8.73180 | 3058 ft | 213 kts | 27° |
| 2026-05-06 15:47 | 45.69999 | 8.74672 | 3649 ft | 223 kts | 64° |
| 2026-05-06 15:47 | 45.70371 | 8.76776 | 4516 ft | 222 kts | 83° |
| 2026-05-06 15:48 | 45.70625 | 8.78929 | 5412 ft | 218 kts | 78° |
| 2026-05-06 15:48 | 45.71214 | 8.80920 | 6065 ft | 224 kts | 51° |
| 2026-05-06 15:48 | 45.72305 | 8.82579 | 6680 ft | 237 kts | 50° |
| 2026-05-06 15:48 | 45.73004 | 8.84730 | 7223 ft | 247 kts | 87° |
| 2026-05-06 15:49 | 45.72669 | 8.87093 | 8024 ft | 246 kts | 120° |
| 2026-05-06 15:49 | 45.71562 | 8.88956 | 8862 ft | 248 kts | 142° |
| 2026-05-06 15:49 | 45.70307 | 8.90686 | 9504 ft | 256 kts | 129° |
| 2026-05-06 15:49 | 45.69276 | 8.92793 | 9693 ft | 258 kts | 126° |
| 2026-05-06 15:50 | 45.68247 | 8.94890 | 9777 ft | 257 kts | 127° |
| 2026-05-06 15:50 | 45.67208 | 8.96975 | 9804 ft | 257 kts | 127° |
| 2026-05-06 15:50 | 45.66171 | 8.99063 | 9822 ft | 257 kts | 127° |
| 2026-05-06 15:50 | 45.65121 | 9.01162 | 9906 ft | 267 kts | 126° |
| 2026-05-06 15:51 | 45.64071 | 9.03458 | 10296 ft | 286 kts | 124° |
| 2026-05-06 15:51 | 45.62980 | 9.05945 | 10625 ft | 306 kts | 123° |
| 2026-05-06 15:51 | 45.61840 | 9.08560 | 10979 ft | 323 kts | 123° |
| 2026-05-06 15:51 | 45.60632 | 9.11341 | 11487 ft | 336 kts | 123° |
| 2026-05-06 15:52 | 45.59373 | 9.14253 | 12164 ft | 342 kts | 123° |
| 2026-05-06 15:52 | 45.58124 | 9.17155 | 12917 ft | 345 kts | 123° |
| 2026-05-06 15:52 | 45.56862 | 9.20104 | 13659 ft | 349 kts | 123° |
| 2026-05-06 15:52 | 45.55588 | 9.23082 | 14405 ft | 353 kts | 123° |
| 2026-05-06 15:53 | 45.54304 | 9.26094 | 15157 ft | 357 kts | 123° |
| 2026-05-06 15:53 | 45.53010 | 9.29143 | 15885 ft | 361 kts | 123° |
| 2026-05-06 15:53 | 45.51707 | 9.32225 | 16583 ft | 365 kts | 123° |
| 2026-05-06 15:53 | 45.50461 | 9.35339 | 17241 ft | 370 kts | 115° |
| 2026-05-06 15:54 | 45.49960 | 9.38955 | 17970 ft | 378 kts | 90° |
| 2026-05-06 15:54 | 45.50543 | 9.42646 | 18577 ft | 389 kts | 66° |
| 2026-05-06 15:54 | 45.51946 | 9.45955 | 19196 ft | 392 kts | 60° |
| 2026-05-06 15:54 | 45.53206 | 9.49438 | 19698 ft | 397 kts | 66° |
| 2026-05-06 15:55 | 45.54369 | 9.53023 | 20284 ft | 400 kts | 67° |
| 2026-05-06 15:55 | 45.55498 | 9.56677 | 20820 ft | 405 kts | 68° |
| 2026-05-06 15:55 | 45.56616 | 9.60384 | 21366 ft | 408 kts | 69° |
| 2026-05-06 15:55 | 45.57731 | 9.64141 | 21890 ft | 412 kts | 69° |
| 2026-05-06 15:56 | 45.58843 | 9.67925 | 22403 ft | 415 kts | 69° |
| 2026-05-06 15:56 | 45.59965 | 9.71759 | 22863 ft | 420 kts | 69° |
| 2026-05-06 15:56 | 45.61090 | 9.75623 | 23491 ft | 421 kts | 69° |
| 2026-05-06 15:56 | 45.62212 | 9.79459 | 24000 ft | 428 kts | 69° |
| 2026-05-06 15:57 | 45.63357 | 9.83410 | 24417 ft | 432 kts | 69° |
| 2026-05-06 15:57 | 45.64512 | 9.87382 | 24913 ft | 434 kts | 69° |
| 2026-05-06 15:57 | 45.65671 | 9.91380 | 25319 ft | 438 kts | 69° |
| 2026-05-06 15:57 | 45.66842 | 9.95427 | 25741 ft | 441 kts | 69° |
| 2026-05-06 15:58 | 45.68019 | 9.99496 | 26159 ft | 444 kts | 69° |
| 2026-05-06 15:58 | 45.69202 | 10.03597 | 26571 ft | 447 kts | 69° |
| 2026-05-06 15:58 | 45.70391 | 10.07722 | 26971 ft | 449 kts | 69° |
| 2026-05-06 15:58 | 45.71587 | 10.11880 | 27311 ft | 453 kts | 69° |
| 2026-05-06 15:59 | 45.72789 | 10.16065 | 27718 ft | 456 kts | 69° |
| 2026-05-06 15:59 | 45.73982 | 10.20228 | 28054 ft | 459 kts | 70° |
| 2026-05-06 15:59 | 45.75212 | 10.24528 | 28433 ft | 461 kts | 70° |
| 2026-05-06 15:59 | 45.76415 | 10.28736 | 28796 ft | 464 kts | 70° |
| 2026-05-06 16:00 | 45.77866 | 10.32894 | 29145 ft | 469 kts | 57° |
| 2026-05-06 16:00 | 45.79726 | 10.36744 | 29492 ft | 470 kts | 58° |
| 2026-05-06 16:00 | 45.80884 | 10.39367 | 29662 ft | 473 kts | 59° |
| 2026-05-06 16:00 | 45.82622 | 10.43384 | 30015 ft | 475 kts | 59° |
| 2026-05-06 16:01 | 45.84351 | 10.47437 | 30328 ft | 477 kts | 60° |
| 2026-05-06 16:01 | 45.86649 | 10.52877 | 30545 ft | 486 kts | 60° |
| 2026-05-06 16:01 | 45.88417 | 10.57076 | 30469 ft | 497 kts | 60° |
| 2026-05-06 16:01 | 45.89628 | 10.59956 | 30446 ft | 502 kts | 60° |
| 2026-05-06 16:02 | 45.91431 | 10.64250 | 30815 ft | 501 kts | 60° |
| 2026-05-06 16:02 | 45.93188 | 10.68559 | 31133 ft | 500 kts | 62° |
| 2026-05-06 16:02 | 45.94857 | 10.72873 | 31494 ft | 500 kts | 60° |
| 2026-05-06 16:02 | 45.96776 | 10.77044 | 31820 ft | 500 kts | 55° |
| 2026-05-06 16:03 | 45.98824 | 10.81085 | 32171 ft | 499 kts | 54° |
| 2026-05-06 16:03 | 46.00902 | 10.85093 | 32530 ft | 499 kts | 54° |
| 2026-05-06 16:03 | 46.02984 | 10.89078 | 32915 ft | 498 kts | 54° |
| 2026-05-06 16:03 | 46.05067 | 10.93068 | 33273 ft | 497 kts | 53° |
| 2026-05-06 16:04 | 46.07139 | 10.97053 | 33629 ft | 496 kts | 54° |
| 2026-05-06 16:04 | 46.09207 | 11.01022 | 33995 ft | 495 kts | 54° |
| 2026-05-06 16:04 | 46.11276 | 11.04994 | 34351 ft | 495 kts | 54° |
| 2026-05-06 16:04 | 46.13333 | 11.08949 | 34729 ft | 494 kts | 54° |
| 2026-05-06 16:05 | 46.15388 | 11.12924 | 35117 ft | 492 kts | 54° |
| 2026-05-06 16:05 | 46.17432 | 11.16883 | 35497 ft | 491 kts | 54° |
| 2026-05-06 16:05 | 46.19464 | 11.20830 | 35821 ft | 490 kts | 54° |
| 2026-05-06 16:05 | 46.21497 | 11.24785 | 35935 ft | 490 kts | 54° |
| 2026-05-06 16:06 | 46.24902 | 11.33113 | 35919 ft | 483 kts | 67° |
| 2026-05-06 16:06 | 46.27969 | 11.41816 | 35934 ft | 487 kts | 63° |
| 2026-05-06 16:07 | 46.31147 | 11.50474 | 35916 ft | 486 kts | 63° |
| 2026-05-06 16:07 | 46.34322 | 11.59104 | 35919 ft | 486 kts | 63° |
| 2026-05-06 16:08 | 46.37492 | 11.67746 | 35939 ft | 486 kts | 63° |
| 2026-05-06 16:08 | 46.40654 | 11.76395 | 35946 ft | 485 kts | 63° |
| 2026-05-06 16:09 | 46.43808 | 11.85052 | 35956 ft | 486 kts | 63° |
| 2026-05-06 16:09 | 46.46953 | 11.93709 | 35946 ft | 485 kts | 63° |
| 2026-05-06 16:10 | 46.50079 | 12.02340 | 35948 ft | 486 kts | 63° |
| 2026-05-06 16:10 | 46.53208 | 12.11009 | 35950 ft | 485 kts | 63° |
| 2026-05-06 16:11 | 46.56340 | 12.19712 | 35922 ft | 486 kts | 63° |
| 2026-05-06 16:11 | 46.59459 | 12.28414 | 35941 ft | 485 kts | 63° |
| 2026-05-06 16:12 | 46.62567 | 12.37111 | 35935 ft | 484 kts | 63° |
| 2026-05-06 16:12 | 46.65655 | 12.45777 | 35939 ft | 485 kts | 63° |
| 2026-05-06 16:13 | 46.68749 | 12.54493 | 35927 ft | 484 kts | 64° |
| 2026-05-06 16:13 | 46.70795 | 12.63687 | 35954 ft | 477 kts | 86° |
| 2026-05-06 16:14 | 46.71664 | 12.73327 | 35914 ft | 480 kts | 85° |
| 2026-05-06 16:14 | 46.72460 | 12.82990 | 35912 ft | 480 kts | 85° |
| 2026-05-06 16:15 | 46.73218 | 12.92671 | 35889 ft | 479 kts | 85° |
| 2026-05-06 16:15 | 46.73964 | 13.02321 | 35890 ft | 479 kts | 85° |
| 2026-05-06 16:16 | 46.74701 | 13.11976 | 35869 ft | 479 kts | 85° |
| 2026-05-06 16:16 | 46.75430 | 13.21639 | 35845 ft | 479 kts | 86° |
| 2026-05-06 16:17 | 46.76146 | 13.31228 | 35842 ft | 478 kts | 86° |
| 2026-05-06 16:17 | 46.76859 | 13.40883 | 35828 ft | 478 kts | 86° |
| 2026-05-06 16:18 | 46.77569 | 13.50537 | 35829 ft | 478 kts | 84° |
| 2026-05-06 16:18 | 46.78494 | 13.60146 | 35845 ft | 479 kts | 84° |
| 2026-05-06 16:19 | 46.79387 | 13.69766 | 35837 ft | 478 kts | 84° |
| 2026-05-06 16:19 | 46.80263 | 13.79335 | 35840 ft | 478 kts | 84° |
| 2026-05-06 16:20 | 46.81137 | 13.88957 | 35854 ft | 478 kts | 84° |
| 2026-05-06 16:20 | 46.82002 | 13.98578 | 35846 ft | 478 kts | 84° |
| 2026-05-06 16:21 | 46.82858 | 14.08196 | 35845 ft | 477 kts | 84° |
| 2026-05-06 16:21 | 46.83705 | 14.17803 | 35852 ft | 477 kts | 84° |
| 2026-05-06 16:22 | 46.84546 | 14.27416 | 35842 ft | 477 kts | 84° |
| 2026-05-06 16:22 | 46.85376 | 14.37030 | 35853 ft | 477 kts | 84° |
| 2026-05-06 16:23 | 46.86199 | 14.46647 | 35863 ft | 477 kts | 84° |
| 2026-05-06 16:23 | 46.87015 | 14.56282 | 35852 ft | 477 kts | 85° |
| 2026-05-06 16:24 | 46.87817 | 14.65842 | 35853 ft | 477 kts | 85° |
| 2026-05-06 16:24 | 46.88617 | 14.75485 | 35852 ft | 477 kts | 85° |
| 2026-05-06 16:25 | 46.89409 | 14.85124 | 35857 ft | 477 kts | 85° |
| 2026-05-06 16:25 | 46.90191 | 14.94752 | 35856 ft | 477 kts | 85° |
| 2026-05-06 16:26 | 46.90966 | 15.04392 | 35850 ft | 477 kts | 85° |
| 2026-05-06 16:26 | 46.91732 | 15.14026 | 35866 ft | 477 kts | 85° |
| 2026-05-06 16:27 | 46.92491 | 15.23659 | 35863 ft | 477 kts | 85° |
| 2026-05-06 16:27 | 46.93238 | 15.33261 | 35856 ft | 477 kts | 85° |
| 2026-05-06 16:28 | 46.93979 | 15.42896 | 35865 ft | 477 kts | 85° |
| 2026-05-06 16:28 | 46.94714 | 15.52552 | 35864 ft | 477 kts | 85° |
| 2026-05-06 16:29 | 46.95441 | 15.62207 | 35860 ft | 477 kts | 85° |
| 2026-05-06 16:29 | 46.96158 | 15.71851 | 35864 ft | 476 kts | 85° |
| 2026-05-06 16:30 | 46.96748 | 15.79872 | 35864 ft | 477 kts | 85° |
| 2026-05-06 16:30 | 46.97570 | 15.91174 | 35865 ft | 477 kts | 85° |
| 2026-05-06 16:31 | 46.98265 | 16.00834 | 35854 ft | 477 kts | 85° |
| 2026-05-06 16:31 | 46.98950 | 16.10434 | 35863 ft | 476 kts | 85° |
| 2026-05-06 16:32 | 46.99634 | 16.20109 | 35857 ft | 477 kts | 84° |
| 2026-05-06 16:32 | 47.00368 | 16.24838 | 35841 ft | 477 kts | 70° |
| 2026-05-06 16:32 | 47.01490 | 16.29405 | 35847 ft | 479 kts | 72° |
| 2026-05-06 16:33 | 47.03628 | 16.38651 | 35870 ft | 479 kts | 71° |
| 2026-05-06 16:34 | 47.06872 | 16.52451 | 35866 ft | 479 kts | 71° |
| 2026-05-06 16:34 | 47.09037 | 16.61697 | 34898 ft | 484 kts | 71° |
| 2026-05-06 16:34 | 47.10132 | 16.66389 | 34251 ft | 483 kts | 71° |
| 2026-05-06 16:35 | 47.11221 | 16.71059 | 33321 ft | 486 kts | 71° |
| 2026-05-06 16:35 | 47.12319 | 16.75786 | 32414 ft | 489 kts | 71° |
| 2026-05-06 16:35 | 47.13411 | 16.80492 | 31652 ft | 487 kts | 71° |
| 2026-05-06 16:35 | 47.14509 | 16.85239 | 30592 ft | 493 kts | 71° |
| 2026-05-06 16:36 | 47.15603 | 16.89975 | 29857 ft | 490 kts | 71° |
| 2026-05-06 16:36 | 47.16705 | 16.94760 | 28669 ft | 494 kts | 71° |
| 2026-05-06 16:36 | 47.17797 | 16.99507 | 27691 ft | 487 kts | 71° |
| 2026-05-06 16:36 | 47.18877 | 17.04217 | 26614 ft | 484 kts | 71° |
| 2026-05-06 16:37 | 47.19939 | 17.08855 | 25851 ft | 473 kts | 72° |
| 2026-05-06 16:37 | 47.20981 | 17.13418 | 25116 ft | 474 kts | 72° |
| 2026-05-06 16:37 | 47.22035 | 17.18043 | 24345 ft | 476 kts | 72° |
| 2026-05-06 16:37 | 47.23087 | 17.22666 | 23602 ft | 476 kts | 72° |
| 2026-05-06 16:38 | 47.24130 | 17.27259 | 22869 ft | 471 kts | 72° |
| 2026-05-06 16:38 | 47.25169 | 17.31819 | 22117 ft | 467 kts | 71° |
| 2026-05-06 16:38 | 47.26293 | 17.36291 | 21295 ft | 466 kts | 70° |
| 2026-05-06 16:38 | 47.27414 | 17.40741 | 20653 ft | 460 kts | 70° |
| 2026-05-06 16:39 | 47.28501 | 17.45089 | 19980 ft | 456 kts | 70° |
| 2026-05-06 16:39 | 47.29587 | 17.49446 | 19320 ft | 451 kts | 70° |
| 2026-05-06 16:39 | 47.30662 | 17.53774 | 18569 ft | 449 kts | 70° |
| 2026-05-06 16:39 | 47.31724 | 17.58054 | 18006 ft | 442 kts | 70° |
| 2026-05-06 16:40 | 47.32776 | 17.62305 | 17159 ft | 442 kts | 71° |
| 2026-05-06 16:40 | 47.33823 | 17.66542 | 16581 ft | 436 kts | 71° |
| 2026-05-06 16:40 | 47.34852 | 17.70715 | 16028 ft | 430 kts | 71° |
| 2026-05-06 16:40 | 47.35874 | 17.74868 | 15203 ft | 431 kts | 71° |
| 2026-05-06 16:41 | 47.36888 | 17.78994 | 14565 ft | 424 kts | 71° |
| 2026-05-06 16:41 | 47.37879 | 17.83063 | 13970 ft | 419 kts | 73° |
| 2026-05-06 16:41 | 47.38358 | 17.87274 | 13262 ft | 415 kts | 91° |
| 2026-05-06 16:41 | 47.38322 | 17.91492 | 12716 ft | 409 kts | 92° |
| 2026-05-06 16:42 | 47.38267 | 17.95700 | 12023 ft | 409 kts | 92° |
| 2026-05-06 16:42 | 47.38196 | 17.99871 | 11558 ft | 404 kts | 93° |
| 2026-05-06 16:42 | 47.38114 | 18.03950 | 11379 ft | 390 kts | 93° |
| 2026-05-06 16:42 | 47.38037 | 18.07882 | 11269 ft | 376 kts | 91° |
| 2026-05-06 16:43 | 47.38181 | 18.11632 | 11064 ft | 356 kts | 84° |
| 2026-05-06 16:43 | 47.38642 | 18.15121 | 10902 ft | 340 kts | 76° |
| 2026-05-06 16:43 | 47.39400 | 18.18366 | 10752 ft | 331 kts | 68° |
| 2026-05-06 16:43 | 47.40341 | 18.21420 | 10601 ft | 322 kts | 65° |
| 2026-05-06 16:44 | 47.41281 | 18.24324 | 10500 ft | 307 kts | 65° |
| 2026-05-06 16:44 | 47.42168 | 18.27061 | 10440 ft | 294 kts | 65° |
| 2026-05-06 16:44 | 47.43042 | 18.29763 | 10320 ft | 286 kts | 65° |
| 2026-05-06 16:44 | 47.43897 | 18.32394 | 10050 ft | 283 kts | 65° |
| 2026-05-06 16:45 | 47.44759 | 18.35035 | 9812 ft | 288 kts | 65° |
| 2026-05-06 16:45 | 47.45635 | 18.37721 | 9548 ft | 291 kts | 65° |
| 2026-05-06 16:45 | 47.46514 | 18.40411 | 9289 ft | 290 kts | 65° |
| 2026-05-06 16:45 | 47.47390 | 18.43097 | 9063 ft | 290 kts | 65° |
| 2026-05-06 16:46 | 47.48269 | 18.45783 | 8786 ft | 291 kts | 65° |
| 2026-05-06 16:46 | 47.49149 | 18.48474 | 8521 ft | 289 kts | 65° |
| 2026-05-06 16:46 | 47.50023 | 18.51147 | 8265 ft | 289 kts | 65° |
| 2026-05-06 16:46 | 47.50898 | 18.53821 | 8016 ft | 288 kts | 65° |
| 2026-05-06 16:47 | 47.51473 | 18.55572 | 7832 ft | 285 kts | 65° |
| 2026-05-06 16:47 | 47.52335 | 18.58206 | 7567 ft | 283 kts | 65° |
| 2026-05-06 16:47 | 47.53189 | 18.60811 | 7314 ft | 280 kts | 65° |
| 2026-05-06 16:47 | 47.54032 | 18.63389 | 7054 ft | 277 kts | 65° |
| 2026-05-06 16:48 | 47.54858 | 18.65916 | 6735 ft | 269 kts | 65° |
| 2026-05-06 16:48 | 47.55924 | 18.69175 | 6323 ft | 264 kts | 65° |
| 2026-05-06 16:48 | 47.56463 | 18.70822 | 6130 ft | 263 kts | 65° |
| 2026-05-06 16:48 | 47.57256 | 18.73241 | 5876 ft | 257 kts | 65° |
| 2026-05-06 16:49 | 47.58020 | 18.75636 | 5621 ft | 255 kts | 70° |
| 2026-05-06 16:49 | 47.58531 | 18.78129 | 5347 ft | 252 kts | 81° |
| 2026-05-06 16:49 | 47.58796 | 18.80675 | 5096 ft | 249 kts | 85° |
| 2026-05-06 16:49 | 47.59000 | 18.83223 | 4852 ft | 248 kts | 85° |
| 2026-05-06 16:50 | 47.59190 | 18.85724 | 4586 ft | 247 kts | 85° |
| 2026-05-06 16:50 | 47.59381 | 18.88244 | 4428 ft | 245 kts | 85° |
| 2026-05-06 16:50 | 47.59571 | 18.90751 | 4353 ft | 245 kts | 85° |
| 2026-05-06 16:50 | 47.59759 | 18.93274 | 4261 ft | 253 kts | 85° |
| 2026-05-06 16:51 | 47.59852 | 18.95917 | 4177 ft | 259 kts | 99° |
| 2026-05-06 16:51 | 47.59264 | 18.98410 | 4084 ft | 257 kts | 124° |
| 2026-05-06 16:51 | 47.58168 | 19.00500 | 4038 ft | 256 kts | 133° |
| 2026-05-06 16:51 | 47.56983 | 19.02450 | 3903 ft | 255 kts | 134° |
| 2026-05-06 16:52 | 47.55806 | 19.04360 | 3581 ft | 247 kts | 134° |
| 2026-05-06 16:52 | 47.54679 | 19.06190 | 3270 ft | 240 kts | 134° |
| 2026-05-06 16:52 | 47.53565 | 19.07995 | 2967 ft | 234 kts | 134° |
| 2026-05-06 16:52 | 47.52484 | 19.09749 | 2669 ft | 227 kts | 134° |
| 2026-05-06 16:53 | 47.51431 | 19.11457 | 2385 ft | 221 kts | 134° |
| 2026-05-06 16:53 | 47.50416 | 19.13103 | 2092 ft | 208 kts | 134° |
| 2026-05-06 16:53 | 47.49492 | 19.14599 | 1826 ft | 187 kts | 134° |
| 2026-05-06 16:53 | 47.48675 | 19.15921 | 1633 ft | 165 kts | 135° |
| 2026-05-06 16:54 | 47.47937 | 19.17120 | 1384 ft | 149 kts | 135° |
| 2026-05-06 16:54 | 47.47243 | 19.18247 | 1207 ft | 148 kts | 134° |
| 2026-05-06 16:54 | 47.46556 | 19.19385 | 942 ft | 147 kts | 135° |
| 2026-05-06 16:54 | 47.45858 | 19.20477 | 749 ft | 147 kts | 134° |
| 2026-05-06 16:55 | 47.45169 | 19.21599 | 589 ft | 147 kts | 134° |
| 2026-05-06 16:55 | 47.44493 | 19.22691 | 457 ft | 139 kts | 134° |
| 2026-05-06 16:55 | 47.43920 | 19.23605 | 458 ft | 97 kts | 133° |
| 2026-05-06 16:55 | 47.43599 | 19.24120 | 455 ft | 52 kts | 131° |
| 2026-05-06 16:56 | 47.43384 | 19.24481 | 455 ft | 45 kts | 132° |
| 2026-05-06 16:56 | 47.43164 | 19.24834 | 457 ft | 44 kts | 133° |
| 2026-05-06 16:56 | 47.43125 | 19.25087 | 459 ft | 29 kts | 59° |
| 2026-05-06 16:56 | 47.43274 | 19.25293 | 460 ft | 29 kts | 41° |
| 2026-05-06 16:57 | 47.43425 | 19.25497 | 459 ft | 30 kts | 42° |
| 2026-05-06 16:57 | 47.43577 | 19.25700 | 460 ft | 32 kts | 42° |
| 2026-05-06 16:57 | 47.43724 | 19.25900 | 460 ft | 15 kts | 51° |
| 2026-05-06 16:57 | 47.43695 | 19.26037 | 460 ft | 16 kts | 131° |
| 2026-05-06 16:58 | 47.43676 | 19.26199 | 460 ft | 18 kts | 88° |
| 2026-05-06 16:58 | 47.43659 | 19.26360 | 460 ft | 11 kts | 128° |
| 2026-05-06 16:58 | 47.43626 | 19.26415 | 458 ft | 8 kts | 133° |
| 2026-05-06 16:58 | 47.43596 | 19.26431 | 460 ft | 4 kts | 205° |
| 2026-05-06 16:59 | 47.43570 | 19.26400 | 458 ft | 4 kts | 220° |
| 2026-05-06 16:59 | 47.43564 | 19.26392 | 459 ft | 0 kts | 221° |